createdAt,value
2023-02-06T00:01:54.137Z,97888.66
2023-02-06T00:04:24.755Z,97884.53
2023-02-06T00:06:55.376Z,97880.38
2023-02-06T00:09:25.849Z,97889.22
2023-02-06T00:11:56.536Z,97888.03
2023-02-06T00:14:27.137Z,97895.53
2023-02-06T00:17:01.355Z,97886.09
2023-02-06T00:19:31.907Z,97886.31
2023-02-06T00:22:02.680Z,97887.00
2023-02-06T00:24:33.547Z,97889.22
2023-02-06T00:27:04.173Z,97881.13
2023-02-06T00:29:34.627Z,97882.38
2023-02-06T00:32:08.497Z,97877.81
2023-02-06T00:34:39.070Z,97878.53
2023-02-06T00:37:10.248Z,97875.34
2023-02-06T00:39:40.777Z,97883.13
2023-02-06T00:42:11.420Z,97879.69
2023-02-06T00:44:41.913Z,97886.53
2023-02-06T00:47:15.127Z,97880.69
2023-02-06T00:49:45.625Z,97881.84
2023-02-06T00:52:16.275Z,97895.00
2023-02-06T00:54:49.221Z,97891.13
2023-02-06T00:57:19.885Z,97889.03
2023-02-06T00:59:50.348Z,97887.13
2023-02-06T01:02:23.649Z,97886.63
2023-02-06T01:04:54.250Z,97889.50
2023-02-06T01:07:24.833Z,97885.44
2023-02-06T01:09:55.340Z,97887.22
2023-02-06T01:12:28.641Z,97884.13
2023-02-06T01:14:59.447Z,97871.47
2023-02-06T01:17:34.139Z,97870.09
2023-02-06T01:20:04.763Z,97873.38
2023-02-06T01:22:37.716Z,97869.19
2023-02-06T01:25:09.747Z,97858.91
2023-02-06T01:27:43.093Z,97870.47
2023-02-06T01:30:15.447Z,97868.44
2023-02-06T01:32:48.718Z,97865.28
2023-02-06T01:35:19.876Z,97867.16
2023-02-06T01:37:50.514Z,97852.47
2023-02-06T01:40:22.129Z,97860.63
2023-02-06T01:42:52.820Z,97853.50
2023-02-06T01:45:47.641Z,97860.94
2023-02-06T01:48:24.382Z,97858.19
2023-02-06T01:50:57.516Z,97854.81
2023-02-06T01:53:29.498Z,97854.06
2023-02-06T01:56:04.002Z,97849.88
2023-02-06T01:58:38.809Z,97850.13
2023-02-06T02:01:10.582Z,97858.13
2023-02-06T02:03:49.029Z,97858.44
2023-02-06T02:06:24.191Z,97872.16
2023-02-06T02:08:58.497Z,97862.28
2023-02-06T02:11:33.433Z,97873.34
2023-02-06T02:14:05.225Z,97887.19
2023-02-06T02:17:09.650Z,97884.94
2023-02-06T02:20:11.404Z,97887.03
2023-02-06T02:23:12.374Z,97892.41
2023-02-06T02:26:09.699Z,97892.72
2023-02-06T02:29:12.317Z,97896.03
2023-02-06T02:32:10.844Z,97891.63
2023-02-06T02:35:14.041Z,97898.22
2023-02-06T02:38:00.918Z,97895.03
2023-02-06T02:40:41.382Z,97909.41
2023-02-06T02:43:21.166Z,97909.25
2023-02-06T02:45:55.091Z,97876.00
2023-02-06T02:48:30.305Z,97893.69
2023-02-06T02:51:03.407Z,97910.06
2023-02-06T02:53:36.516Z,97902.56
2023-02-06T02:56:18.200Z,97907.88
2023-02-06T02:58:54.101Z,97910.13
2023-02-06T03:01:32.325Z,97908.03
2023-02-06T03:04:10.944Z,97910.53
2023-02-06T03:07:10.832Z,97909.75
2023-02-06T03:10:02.285Z,97901.31
2023-02-06T03:12:41.889Z,97905.63
2023-02-06T03:15:22.768Z,97917.03
2023-02-06T03:17:59.307Z,97917.31
2023-02-06T03:20:30.954Z,97915.06
2023-02-06T03:23:04.038Z,97917.31
2023-02-06T03:25:41.382Z,97918.94
2023-02-06T03:28:24.071Z,97913.94
2023-02-06T03:30:59.229Z,97918.28
2023-02-06T03:33:35.405Z,97922.78
2023-02-06T03:36:06.589Z,97928.91
2023-02-06T03:38:37.206Z,97914.22
2023-02-06T03:41:11.124Z,97916.00
2023-02-06T03:43:42.075Z,97927.94
2023-02-06T03:46:16.333Z,97928.94
2023-02-06T03:48:50.935Z,97927.25
2023-02-06T03:51:25.322Z,97929.84
2023-02-06T03:53:58.849Z,97944.44
2023-02-06T03:56:37.598Z,97937.53
2023-02-06T03:59:08.245Z,97940.84
2023-02-06T04:01:43.564Z,97946.06
2023-02-06T04:04:14.105Z,97952.91
2023-02-06T04:06:45.315Z,97945.13
2023-02-06T04:09:16.078Z,97949.53
2023-02-06T04:11:49.373Z,97954.03
2023-02-06T04:14:19.829Z,97952.16
2023-02-06T04:16:50.544Z,97955.50
2023-02-06T04:19:21.108Z,97963.28
2023-02-06T04:21:52.263Z,97968.41
2023-02-06T04:24:22.794Z,97970.81
2023-02-06T04:26:56.434Z,97969.53
2023-02-06T04:29:26.970Z,97969.03
2023-02-06T04:32:02.222Z,97972.72
2023-02-06T04:34:32.979Z,97981.50
2023-02-06T04:37:05.119Z,97963.56
2023-02-06T04:39:37.110Z,97960.44
2023-02-06T04:42:10.724Z,97983.66
2023-02-06T04:44:41.466Z,97977.69
2023-02-06T04:47:12.049Z,97979.47
2023-02-06T04:49:42.585Z,97984.16
2023-02-06T04:52:13.160Z,97989.56
2023-02-06T04:54:43.714Z,97987.00
2023-02-06T04:57:16.914Z,97985.34
2023-02-06T04:59:47.394Z,97984.91
2023-02-06T05:02:18.324Z,97999.91
2023-02-06T05:04:48.913Z,97997.69
2023-02-06T05:07:19.866Z,98000.66
2023-02-06T05:09:50.516Z,98000.91
2023-02-06T05:12:24.828Z,98008.84
2023-02-06T05:14:55.386Z,98005.56
2023-02-06T05:17:26.261Z,98009.09
2023-02-06T05:19:58.234Z,98008.31
2023-02-06T05:22:29.471Z,98014.41
2023-02-06T05:25:00.117Z,98016.16
2023-02-06T05:27:33.475Z,98014.44
2023-02-06T05:30:03.938Z,98022.19
2023-02-06T05:32:35.409Z,98022.66
2023-02-06T05:35:05.909Z,98030.66
2023-02-06T05:37:37.487Z,98036.09
2023-02-06T05:40:08.355Z,98037.22
2023-02-06T05:42:41.592Z,98041.78
2023-02-06T05:45:12.850Z,98035.22
2023-02-06T05:47:43.544Z,98033.88
2023-02-06T05:50:14.030Z,98042.06
2023-02-06T05:52:44.794Z,98045.03
2023-02-06T05:55:17.180Z,98042.09
2023-02-06T05:57:50.803Z,98051.22
2023-02-06T06:00:22.068Z,98048.31
2023-02-06T06:02:52.711Z,98029.38
2023-02-06T06:05:23.946Z,98059.84
2023-02-06T06:07:54.648Z,98054.38
2023-02-06T06:10:25.176Z,98055.88
2023-02-06T06:12:59.202Z,98062.56
2023-02-06T06:15:29.793Z,98064.97
2023-02-06T06:18:00.927Z,98074.25
2023-02-06T06:20:31.583Z,98041.75
2023-02-06T06:23:02.299Z,98073.94
2023-02-06T06:25:32.840Z,98066.03
2023-02-06T06:28:06.716Z,98057.28
2023-02-06T06:30:37.821Z,98064.88
2023-02-06T06:33:08.724Z,98057.91
2023-02-06T06:35:39.763Z,98063.88
2023-02-06T06:38:10.401Z,98063.88
2023-02-06T06:40:40.904Z,98059.50
2023-02-06T06:43:14.095Z,98065.50
2023-02-06T06:45:44.808Z,98056.75
2023-02-06T06:48:15.441Z,98057.56
2023-02-06T06:50:46.163Z,98060.03
2023-02-06T06:53:16.851Z,98058.25
2023-02-06T06:55:47.357Z,98054.72
2023-02-06T06:58:20.808Z,98057.22
2023-02-06T07:00:51.301Z,98061.41
2023-02-06T07:03:22.040Z,98065.59
2023-02-06T07:05:53.344Z,98059.44
2023-02-06T07:08:24.084Z,98074.84
2023-02-06T07:10:54.600Z,98075.66
2023-02-06T07:13:27.787Z,98079.91
2023-02-06T07:15:58.300Z,98079.72
2023-02-06T07:18:28.833Z,98085.59
2023-02-06T07:20:59.387Z,98085.50
2023-02-06T07:23:30.034Z,98087.97
2023-02-06T07:26:02.511Z,98089.59
2023-02-06T07:28:36.333Z,98087.84
2023-02-06T07:31:10.555Z,98087.75
2023-02-06T07:33:41.102Z,98097.16
2023-02-06T07:36:14.328Z,98097.03
2023-02-06T07:38:45.226Z,98086.50
2023-02-06T07:41:16.296Z,98091.56
2023-02-06T07:43:49.500Z,98087.94
2023-02-06T07:46:20.134Z,98092.13
2023-02-06T07:48:50.784Z,98087.66
2023-02-06T07:51:21.338Z,98089.22
2023-02-06T07:53:52.024Z,98093.34
2023-02-06T07:56:23.841Z,98089.69
2023-02-06T07:58:58.204Z,98099.03
2023-02-06T08:01:28.896Z,98093.69
2023-02-06T08:03:59.827Z,98096.06
2023-02-06T08:06:30.469Z,98107.06
2023-02-06T08:09:01.081Z,98105.22
2023-02-06T08:11:31.800Z,98105.97
2023-02-06T08:14:05.110Z,98109.34
2023-02-06T08:16:35.756Z,98108.44
2023-02-06T08:19:07.093Z,98115.16
2023-02-06T08:21:37.540Z,98123.75
2023-02-06T08:24:09.820Z,98128.03
2023-02-06T08:26:40.318Z,98121.22
2023-02-06T08:29:14.595Z,98128.00
2023-02-06T08:31:46.125Z,98129.63
2023-02-06T08:34:18.065Z,98131.22
2023-02-06T08:36:48.584Z,98129.38
2023-02-06T08:39:19.432Z,98136.97
2023-02-06T08:41:50.126Z,98135.97
2023-02-06T08:44:23.416Z,98139.28
2023-02-06T08:47:08.744Z,98130.44
2023-02-06T08:49:40.379Z,98133.00
2023-02-06T08:52:10.866Z,98135.53
2023-02-06T08:54:41.503Z,98138.94
2023-02-06T08:57:13.095Z,98138.94
2023-02-06T08:59:46.283Z,98133.66
2023-02-06T09:02:16.853Z,98142.25
2023-02-06T09:04:47.342Z,98139.53
2023-02-06T09:07:17.778Z,98130.03
2023-02-06T09:09:48.368Z,98140.38
2023-02-06T09:12:19.066Z,98147.34
2023-02-06T09:14:52.677Z,98146.41
2023-02-06T09:17:23.228Z,98152.53
2023-02-06T09:19:53.947Z,98155.16
2023-02-06T09:22:24.468Z,98137.44
2023-02-06T09:24:55.004Z,98161.06
2023-02-06T09:27:25.537Z,98156.63
2023-02-06T09:29:58.806Z,98156.41
2023-02-06T09:32:29.241Z,98157.09
2023-02-06T09:34:59.928Z,98147.28
2023-02-06T09:37:30.799Z,98140.00
2023-02-06T09:40:01.408Z,98147.50
2023-02-06T09:42:37.011Z,98149.81
2023-02-06T09:45:15.461Z,98145.34
2023-02-06T09:47:49.774Z,98137.47
2023-02-06T09:50:29.924Z,98131.34
2023-02-06T09:53:16.808Z,98134.81
2023-02-06T09:55:49.461Z,98137.31
2023-02-06T09:58:26.372Z,98134.81
2023-02-06T10:01:04.338Z,98134.06
2023-02-06T10:04:00.890Z,98128.84
2023-02-06T10:06:36.060Z,98125.38
2023-02-06T10:09:11.667Z,98130.41
2023-02-06T10:11:48.190Z,98126.84
2023-02-06T10:14:24.552Z,98126.66
2023-02-06T10:17:01.313Z,98102.81
2023-02-06T10:19:44.147Z,98129.91
2023-02-06T10:22:21.267Z,98127.25
2023-02-06T10:25:06.587Z,98122.00
2023-02-06T10:27:40.672Z,98118.47
2023-02-06T10:30:19.574Z,98101.34
2023-02-06T10:32:58.704Z,98114.19
2023-02-06T10:35:39.930Z,98109.09
2023-02-06T10:38:48.651Z,98108.16
2023-02-06T10:41:32.114Z,98103.88
2023-02-06T10:44:11.258Z,98106.47
2023-02-06T10:46:48.447Z,98100.22
2023-02-06T10:49:28.062Z,98095.78
2023-02-06T10:52:00.962Z,98091.38
2023-02-06T10:54:37.753Z,98096.47
2023-02-06T10:57:15.840Z,98092.94
2023-02-06T10:59:53.749Z,98091.31
2023-02-06T11:02:28.553Z,98089.75
2023-02-06T11:05:07.417Z,98094.22
2023-02-06T11:07:45.355Z,98080.63
2023-02-06T11:10:18.424Z,98089.00
2023-02-06T11:12:54.344Z,98097.81
2023-02-06T11:15:32.821Z,98097.91
2023-02-06T11:18:06.395Z,98099.75
2023-02-06T11:20:41.370Z,98100.75
2023-02-06T11:23:22.980Z,98106.97
2023-02-06T11:26:01.253Z,98103.47
2023-02-06T11:28:34.513Z,98102.25
2023-02-06T11:31:08.164Z,98100.66
2023-02-06T11:33:44.057Z,98103.31
2023-02-06T11:36:29.270Z,98105.84
2023-02-06T11:39:02.004Z,98108.03
2023-02-06T11:41:34.030Z,98122.00
2023-02-06T11:44:06.785Z,98107.25
2023-02-06T11:46:39.175Z,98126.59
2023-02-06T11:49:25.045Z,98123.44
2023-02-06T11:51:59.972Z,98121.00
2023-02-06T11:54:35.596Z,98110.50
2023-02-06T11:57:09.549Z,98110.59
2023-02-06T11:59:52.714Z,98114.13
2023-02-06T12:02:30.166Z,98117.53
2023-02-06T12:05:06.909Z,98111.53
2023-02-06T12:07:43.530Z,98119.34
2023-02-06T12:10:17.409Z,98124.63
2023-02-06T12:12:53.302Z,98127.38
2023-02-06T12:15:46.107Z,98124.97
2023-02-06T12:18:19.760Z,98127.81
2023-02-06T12:20:55.132Z,98130.84
2023-02-06T12:23:30.820Z,98134.59
2023-02-06T12:26:04.065Z,98134.06
2023-02-06T12:28:39.463Z,98142.13
2023-02-06T12:31:16.080Z,98141.72
2023-02-06T12:33:54.719Z,98142.00
2023-02-06T12:36:28.357Z,98138.06
2023-02-06T12:39:05.115Z,98148.91
2023-02-06T12:41:49.398Z,98141.63
2023-02-06T12:44:28.192Z,98149.06
2023-02-06T12:47:02.829Z,98137.63
2023-02-06T12:49:39.898Z,98157.16
2023-02-06T12:52:19.862Z,98135.72
2023-02-06T12:54:58.716Z,98155.19
2023-02-06T12:57:32.624Z,98163.94
2023-02-06T13:00:38.294Z,98168.28
2023-02-06T13:03:25.539Z,98161.44
2023-02-06T13:05:58.531Z,98160.69
2023-02-06T13:08:31.658Z,98159.22
2023-02-06T13:11:08.934Z,98171.34
2023-02-06T13:13:43.921Z,98169.75
2023-02-06T13:16:14.807Z,98175.81
2023-02-06T13:19:06.113Z,98178.38
2023-02-06T13:21:37.012Z,98174.78
2023-02-06T13:24:22.510Z,98160.03
2023-02-06T13:27:15.674Z,98181.38
2023-02-06T13:29:48.377Z,98186.53
2023-02-06T13:32:47.187Z,98188.16
2023-02-06T13:35:23.570Z,98188.94
2023-02-06T13:38:12.334Z,98187.13
2023-02-06T13:40:42.891Z,98180.16
2023-02-06T13:43:22.803Z,98192.22
2023-02-06T13:45:58.373Z,98192.16
2023-02-06T13:48:52.500Z,98174.47
2023-02-06T13:51:40.647Z,98192.91
2023-02-06T13:54:43.696Z,98194.69
2023-02-06T13:57:26.989Z,98203.41
2023-02-06T14:00:04.264Z,98201.00
2023-02-06T14:02:40.916Z,98209.09
2023-02-06T14:05:16.235Z,98207.50
2023-02-06T14:08:13.811Z,98200.72
2023-02-06T14:11:14.688Z,98202.59
2023-02-06T14:14:03.462Z,98198.41
2023-02-06T14:16:49.673Z,98197.63
2023-02-06T14:19:29.812Z,98188.19
2023-02-06T14:22:07.286Z,98195.94
2023-02-06T14:25:04.794Z,98202.84
2023-02-06T14:27:50.352Z,98202.84
2023-02-06T14:30:30.443Z,98192.38
2023-02-06T14:33:14.706Z,98194.00
2023-02-06T14:35:57.632Z,98196.50
2023-02-06T14:39:10.992Z,98195.56
2023-02-06T14:41:42.388Z,98201.56
2023-02-06T14:44:16.043Z,98199.81
2023-02-06T14:46:46.958Z,98197.25
2023-02-06T14:49:32.750Z,98204.22
2023-02-06T14:52:04.624Z,98199.09
2023-02-06T14:54:37.084Z,98208.59
2023-02-06T14:57:10.105Z,98200.78
2023-02-06T14:59:40.603Z,98206.00
2023-02-06T15:02:20.642Z,98210.41
2023-02-06T15:04:54.146Z,98217.38
2023-02-06T15:07:28.059Z,98219.13
2023-02-06T15:10:07.347Z,98221.75
2023-02-06T15:12:38.876Z,98223.56
2023-02-06T15:15:20.532Z,98232.34
2023-02-06T15:18:00.390Z,98237.75
2023-02-06T15:20:40.469Z,98236.88
2023-02-06T15:23:20.214Z,98242.16
2023-02-06T15:26:07.527Z,98248.41
2023-02-06T15:28:39.676Z,98256.03
2023-02-06T15:31:21.007Z,98255.53
2023-02-06T15:33:53.776Z,98257.91
2023-02-06T15:36:31.845Z,98256.63
2023-02-06T15:39:03.447Z,98264.56
2023-02-06T15:41:35.008Z,98271.44
2023-02-06T15:44:10.005Z,98263.34
2023-02-06T15:46:41.566Z,98274.97
2023-02-06T15:49:20.313Z,98275.63
2023-02-06T15:51:58.704Z,98280.28
2023-02-06T15:54:30.790Z,98284.31
2023-02-06T15:57:06.679Z,98290.06
2023-02-06T15:59:39.945Z,98293.13
2023-02-06T16:02:10.958Z,98290.16
2023-02-06T16:04:42.850Z,98297.56
2023-02-06T16:07:19.778Z,98293.00
2023-02-06T16:09:54.326Z,98305.53
2023-02-06T16:12:25.733Z,98316.50
2023-02-06T16:14:59.714Z,98317.69
2023-02-06T16:17:35.583Z,98324.88
2023-02-06T16:20:08.813Z,98319.59
2023-02-06T16:22:42.564Z,98326.22
2023-02-06T16:25:25.923Z,98325.06
2023-02-06T16:27:56.737Z,98338.88
2023-02-06T16:30:31.205Z,98340.66
2023-02-06T16:33:11.257Z,98345.06
2023-02-06T16:35:41.997Z,98353.00
2023-02-06T16:38:15.384Z,98351.38
2023-02-06T16:40:46.416Z,98356.69
2023-02-06T16:43:17.215Z,98358.13
2023-02-06T16:45:49.323Z,98373.84
2023-02-06T16:48:21.456Z,98384.31
2023-02-06T16:50:52.306Z,98391.28
2023-02-06T16:53:27.590Z,98389.06
2023-02-06T16:55:58.379Z,98380.03
2023-02-06T16:58:32.083Z,98383.81
2023-02-06T17:01:02.839Z,98379.94
2023-02-06T17:03:33.680Z,98389.78
2023-02-06T17:06:04.520Z,98375.41
2023-02-06T17:08:41.990Z,98383.28
2023-02-06T17:11:13.894Z,98381.63
2023-02-06T17:13:44.686Z,98374.63
2023-02-06T17:16:31.817Z,98378.09
2023-02-06T17:19:02.899Z,98377.13
2023-02-06T17:21:33.741Z,98380.56
2023-02-06T17:24:14.069Z,98383.03
2023-02-06T17:26:46.848Z,98378.50
2023-02-06T17:29:18.244Z,98342.19
2023-02-06T17:31:49.146Z,98387.47
2023-02-06T17:34:20.045Z,98378.84
2023-02-06T17:36:50.647Z,98387.84
2023-02-06T17:39:24.624Z,98383.22
2023-02-06T17:41:55.346Z,98389.81
2023-02-06T17:44:26.200Z,98389.16
2023-02-06T17:46:56.711Z,98386.91
2023-02-06T17:49:28.041Z,98393.13
2023-02-06T17:51:59.687Z,98385.56
2023-02-06T17:54:33.068Z,98400.13
2023-02-06T17:57:04.748Z,98399.31
2023-02-06T17:59:35.984Z,98403.72
2023-02-06T18:02:06.966Z,98401.22
2023-02-06T18:04:37.907Z,98402.16
2023-02-06T18:07:09.822Z,98395.34
2023-02-06T18:09:44.126Z,98399.69
2023-02-06T18:12:15.519Z,98398.19
2023-02-06T18:14:48.307Z,98401.88
2023-02-06T18:17:20.678Z,98401.75
2023-02-06T18:19:52.401Z,98408.66
2023-02-06T18:22:25.103Z,98409.16
2023-02-06T18:25:01.181Z,98406.16
2023-02-06T18:27:33.103Z,98413.53
2023-02-06T18:30:04.911Z,98403.63
2023-02-06T18:32:37.481Z,98413.22
2023-02-06T18:35:09.574Z,98388.56
2023-02-06T18:37:40.795Z,98412.63
2023-02-06T18:40:15.280Z,98406.59
2023-02-06T18:42:54.270Z,98407.47
2023-02-06T18:45:26.737Z,98402.28
2023-02-06T18:47:57.733Z,98404.91
2023-02-06T18:50:28.370Z,98407.53
2023-02-06T18:52:59.155Z,98410.16
2023-02-06T18:55:35.165Z,98413.94
2023-02-06T18:58:08.319Z,98406.38
2023-02-06T19:00:42.258Z,98411.28
2023-02-06T19:03:12.897Z,98418.66
2023-02-06T19:05:43.538Z,98407.66
2023-02-06T19:08:14.252Z,98413.19
2023-02-06T19:10:47.854Z,98420.53
2023-02-06T19:13:18.555Z,98420.97
2023-02-06T19:15:49.272Z,98429.94
2023-02-06T19:18:29.028Z,98418.13
2023-02-06T19:21:11.072Z,98426.16
2023-02-06T19:23:42.091Z,98427.00
2023-02-06T19:26:17.825Z,98422.97
2023-02-06T19:28:48.874Z,98424.19
2023-02-06T19:31:24.147Z,98430.41
2023-02-06T19:33:58.157Z,98440.25
2023-02-06T19:36:30.382Z,98449.19
2023-02-06T19:39:05.990Z,98443.53
2023-02-06T19:41:39.916Z,98433.53
2023-02-06T19:44:12.462Z,98436.53
2023-02-06T19:46:43.337Z,98433.34
2023-02-06T19:49:14.720Z,98431.28
2023-02-06T19:51:45.628Z,98431.00
2023-02-06T19:54:16.821Z,98441.88
2023-02-06T19:56:51.292Z,98441.63
2023-02-06T19:59:24.416Z,98438.75
2023-02-06T20:01:57.692Z,98446.19
2023-02-06T20:04:30.314Z,98441.34
2023-02-06T20:07:01.464Z,98449.25
2023-02-06T20:09:32.822Z,98435.56
2023-02-06T20:12:06.870Z,98438.28
2023-02-06T20:14:37.536Z,98433.69
2023-02-06T20:17:09.524Z,98437.50
2023-02-06T20:19:40.145Z,98448.22
2023-02-06T20:22:11.940Z,98442.94
2023-02-06T20:24:42.532Z,98448.44
2023-02-06T20:27:17.337Z,98441.78
2023-02-06T20:29:48.075Z,98444.78
2023-02-06T20:32:19.836Z,98443.50
2023-02-06T20:34:50.519Z,98445.72
2023-02-06T20:37:21.679Z,98440.16
2023-02-06T20:39:52.560Z,98437.22
2023-02-06T20:42:27.429Z,98435.22
2023-02-06T20:44:59.056Z,98435.81
2023-02-06T20:47:29.927Z,98432.94
2023-02-06T20:50:02.044Z,98436.16
2023-02-06T20:52:34.461Z,98425.63
2023-02-06T20:55:05.917Z,98433.22
2023-02-06T20:57:39.305Z,98432.94
2023-02-06T21:00:12.116Z,98429.75
2023-02-06T21:02:43.055Z,98442.94
2023-02-06T21:05:13.687Z,98428.56
2023-02-06T21:07:44.311Z,98447.94
2023-02-06T21:10:15.440Z,98444.91
2023-02-06T21:12:49.774Z,98441.00
2023-02-06T21:15:20.479Z,98441.41
2023-02-06T21:17:51.152Z,98450.47
2023-02-06T21:20:21.970Z,98440.16
2023-02-06T21:22:54.741Z,98459.44
2023-02-06T21:25:26.191Z,98444.94
2023-02-06T21:27:59.454Z,98456.22
2023-02-06T21:30:30.154Z,98450.25
2023-02-06T21:33:01.153Z,98453.72
2023-02-06T21:35:33.964Z,98458.94
2023-02-06T21:38:04.479Z,98451.13
2023-02-06T21:40:35.338Z,98462.34
2023-02-06T21:43:08.454Z,98452.91
2023-02-06T21:45:41.439Z,98457.47
2023-02-06T21:48:12.390Z,98461.31
2023-02-06T21:50:45.177Z,98462.78
2023-02-06T21:53:16.266Z,98460.91
2023-02-06T21:55:47.651Z,98457.38
2023-02-06T21:58:20.864Z,98463.19
2023-02-06T22:00:52.521Z,98468.06
2023-02-06T22:03:24.487Z,98454.72
2023-02-06T22:05:55.327Z,98467.88
2023-02-06T22:08:26.631Z,98461.91
2023-02-06T22:10:57.224Z,98463.72
2023-02-06T22:13:30.721Z,98459.38
2023-02-06T22:16:01.436Z,98460.25
2023-02-06T22:18:32.742Z,98461.97
2023-02-06T22:21:07.947Z,98463.72
2023-02-06T22:23:38.691Z,98462.78
2023-02-06T22:26:11.083Z,98462.78
2023-02-06T22:28:45.886Z,98454.22
2023-02-06T22:31:18.599Z,98454.63
2023-02-06T22:33:49.386Z,98455.78
2023-02-06T22:36:22.039Z,98455.00
2023-02-06T22:38:56.792Z,98455.50
2023-02-06T22:41:27.428Z,98456.78
2023-02-06T22:44:00.791Z,98454.66
2023-02-06T22:46:32.908Z,98451.72
2023-02-06T22:49:03.732Z,98457.97
2023-02-06T22:51:34.304Z,98450.34
2023-02-06T22:54:05.802Z,98453.84
2023-02-06T22:56:37.932Z,98461.63
2023-02-06T22:59:13.286Z,98463.44
2023-02-06T23:01:45.954Z,98465.94
2023-02-06T23:04:18.687Z,98465.94
2023-02-06T23:06:50.324Z,98464.19
2023-02-06T23:09:23.314Z,98465.00
2023-02-06T23:11:55.013Z,98464.16
2023-02-06T23:14:29.269Z,98459.72
2023-02-06T23:16:59.906Z,98459.44
2023-02-06T23:19:30.593Z,98457.38
2023-02-06T23:22:01.318Z,98461.53
2023-02-06T23:24:31.997Z,98460.66
2023-02-06T23:27:02.693Z,98461.56
2023-02-06T23:29:35.844Z,98463.13
2023-02-06T23:32:06.408Z,98459.25
2023-02-06T23:34:39.094Z,98471.66
2023-02-06T23:37:10.418Z,98465.06
2023-02-06T23:39:43.870Z,98471.66
2023-02-06T23:42:14.478Z,98472.28
2023-02-06T23:44:47.639Z,98471.97
2023-02-06T23:47:18.273Z,98469.75
2023-02-06T23:49:48.770Z,98463.06
2023-02-06T23:52:19.381Z,98465.81
2023-02-06T23:54:49.912Z,98471.06
2023-02-06T23:57:20.553Z,98477.16
2023-02-06T23:59:53.927Z,98474.63
